Main page
METAR-TAF:

METAR-TAF

Airports :

Base de Almagro

Almagro, Spain

latitude: 38-57-11N, longitude: 3-44-29W, elevation: 629 m

Current weather observation

The report was made 2 hours and 32 minutes ago, at 22:00 UTC
Wind 7 kt from the West, varying between Southwest and West
Temperature 6°C
Humidity 87%
Pressure 1013 hPa
Visibility 10 km or more
Scattered clouds at a height of 2500 ft

METAR: LEAO 232200Z 26007KT 220V280 9999 SCT025 06/04 Q1013

Time: 01:32 (00:32 UTC)

Forecast

The report was made 4 hours and 32 minutes ago, at 20:00 UTC
Forecast valid from 23 at 21 UTC to 24 at 21 UTC
Wind 10 kt from the West
Visibility 10 km or more
Few clouds at a height of 2000 ft
Probability 30% :
Temporary
from 23 at 21 UTC to 24 at 06 UTC
Broken clouds at a height of 1400 ft
rain
Temporary
from 24 at 06 UTC to 24 at 18 UTC
Wind 15 kt from the West with gusts up to 25 kt

TAF: LEAO 232000Z 2321/2421 27010KT 9999 FEW020 TX13/2415Z TN04/2406Z PROB30 TEMPO 2321/2406 RA BKN014 TEMPO 2406/2418 28015G25KT

Weather observations and forecasts of more than 4000 airports (METAR and TAF reports).

The available stations are represented by yellow and red dots on the map.

Hover mouse over dot to see the name of the station.

Then click to see weather observations and forecasts.

To change the map : click on the green buttons with a black cross to zoom in, on the green button with a dash to zoom out, or on the green arrows for adjacent maps.


METAR-TAF: